createdAt,value
2022-10-11T00:01:01.568Z,15.6
2022-10-11T00:06:01.733Z,15.0
2022-10-11T00:11:01.612Z,13.6
2022-10-11T00:16:01.784Z,14.6
2022-10-11T00:21:01.509Z,14.4
2022-10-11T00:26:01.959Z,13.7
2022-10-11T00:31:01.778Z,14.3
2022-10-11T00:36:01.803Z,15.5
2022-10-11T00:41:01.416Z,14.9
2022-10-11T00:46:05.916Z,15.0
2022-10-11T00:51:01.536Z,16.0
2022-10-11T00:56:01.454Z,16.2
2022-10-11T01:01:01.339Z,17.2
2022-10-11T01:06:01.490Z,18.1
2022-10-11T01:11:01.315Z,17.4
2022-10-11T01:16:01.653Z,17.2
2022-10-11T01:21:01.404Z,16.4
2022-10-11T01:26:01.327Z,15.4
2022-10-11T01:31:01.435Z,15.2
2022-10-11T01:36:01.864Z,15.4
2022-10-11T01:41:01.539Z,15.0
2022-10-11T01:46:01.403Z,15.6
2022-10-11T01:51:01.412Z,14.8
2022-10-11T01:56:01.558Z,14.6
2022-10-11T02:01:17.292Z,14.2
2022-10-11T02:06:01.582Z,13.5
2022-10-11T02:11:01.400Z,12.6
2022-10-11T02:16:01.958Z,13.3
2022-10-11T02:21:01.460Z,12.7
2022-10-11T02:26:01.696Z,13.3
2022-10-11T02:31:01.540Z,13.4
2022-10-11T02:36:01.932Z,14.7
2022-10-11T02:41:01.439Z,15.2
2022-10-11T02:46:01.825Z,16.2
2022-10-11T02:51:01.502Z,16.6
2022-10-11T02:56:01.825Z,16.8
2022-10-11T03:01:01.532Z,16.0
2022-10-11T03:06:01.887Z,13.9
2022-10-11T03:11:01.565Z,11.4
2022-10-11T03:16:03.455Z,8.7
2022-10-11T03:21:01.534Z,7.3
2022-10-11T03:26:01.863Z,6.0
2022-10-11T03:31:01.553Z,5.4
2022-10-11T03:41:01.631Z,5.8
2022-10-11T03:46:04.289Z,5.6
2022-10-11T03:51:01.265Z,4.5
2022-10-11T03:56:05.977Z,5.4
2022-10-11T04:01:01.559Z,4.8
2022-10-11T04:06:01.705Z,5.0
2022-10-11T04:11:01.548Z,6.0
2022-10-11T04:16:01.807Z,6.4
2022-10-11T04:21:01.950Z,6.2
2022-10-11T04:26:04.653Z,6.6
2022-10-11T04:31:01.522Z,6.2
2022-10-11T04:36:01.751Z,10.1
2022-10-11T04:41:01.565Z,16.4
2022-10-11T04:46:01.520Z,19.1
2022-10-11T04:51:02.002Z,27.3
2022-10-11T04:56:01.856Z,30.0
2022-10-11T05:01:02.586Z,28.6
2022-10-11T05:06:05.336Z,23.3
2022-10-11T05:11:01.508Z,21.3
2022-10-11T05:16:01.766Z,13.6
2022-10-11T05:21:04.082Z,11.9
2022-10-11T05:26:01.732Z,8.9
2022-10-11T05:31:01.507Z,7.9
2022-10-11T05:36:04.347Z,8.7
2022-10-11T05:41:01.600Z,8.2
2022-10-11T05:46:01.764Z,8.4
2022-10-11T05:51:01.504Z,8.2
2022-10-11T05:56:01.819Z,8.1
2022-10-11T06:01:01.643Z,6.1
2022-10-11T06:06:01.922Z,8.4
2022-10-11T06:16:03.986Z,8.6
2022-10-11T06:21:01.528Z,9.9
2022-10-11T06:26:05.470Z,10.4
2022-10-11T06:31:03.737Z,8.4
2022-10-11T06:36:01.816Z,7.6
2022-10-11T06:41:17.129Z,7.8
2022-10-11T06:46:03.545Z,7.1
2022-10-11T06:51:02.488Z,7.7
2022-10-11T06:56:01.924Z,7.3
2022-10-11T07:01:05.354Z,8.1
2022-10-11T07:07:01.512Z,11.2
2022-10-11T07:12:01.547Z,14.1
2022-10-11T07:17:01.507Z,14.0
2022-10-11T07:27:01.507Z,13.9
2022-10-11T07:32:01.548Z,10.6
2022-10-11T07:37:02.137Z,8.1
2022-10-11T07:42:02.100Z,8.0
2022-10-11T07:57:01.935Z,7.6
2022-10-11T08:02:01.645Z,7.0
2022-10-11T08:07:02.005Z,6.8
2022-10-11T08:12:01.706Z,6.5
2022-10-11T08:17:01.544Z,5.7
2022-10-11T08:23:01.505Z,5.2
2022-10-11T08:28:01.930Z,5.0
2022-10-11T08:33:05.050Z,4.6
2022-10-11T08:38:01.506Z,4.4
2022-10-11T08:43:01.524Z,3.9
2022-10-11T08:48:01.410Z,3.6
2022-10-11T08:53:01.536Z,3.0
2022-10-11T08:58:02.577Z,2.3
2022-10-11T09:03:09.649Z,2.5
2022-10-11T09:13:01.729Z,2.9
2022-10-11T09:18:17.111Z,2.7
2022-10-11T09:23:01.413Z,3.5
2022-10-11T09:28:03.102Z,3.4
2022-10-11T09:33:01.600Z,3.0
2022-10-11T09:38:01.609Z,2.1
2022-10-11T09:43:01.583Z,2.0
2022-10-11T09:48:01.507Z,1.4
2022-10-11T09:53:01.557Z,0.6
2022-10-11T09:58:01.508Z,0.4
2022-10-11T10:03:01.515Z,0.5
2022-10-11T10:08:21.257Z,0.8
2022-10-11T10:13:01.509Z,0.6
2022-10-11T10:23:01.527Z,0.7
2022-10-11T10:33:05.511Z,0.4
2022-10-11T10:38:01.659Z,0.3
2022-10-11T10:43:01.964Z,0.7
2022-10-11T10:48:01.412Z,1.1
2022-10-11T10:53:01.540Z,1.2
2022-10-11T10:58:01.417Z,1.1
2022-10-11T11:08:01.534Z,0.7
2022-10-11T11:18:01.428Z,0.4
2022-10-11T11:33:17.282Z,0.5
2022-10-11T11:38:24.887Z,0.6
2022-10-11T11:43:01.508Z,0.4
2022-10-11T11:53:01.437Z,0.7
2022-10-11T11:58:06.158Z,0.8
2022-10-11T12:03:04.438Z,0.6
2022-10-11T12:08:01.511Z,0.9
2022-10-11T12:18:01.540Z,0.8
2022-10-11T12:23:01.512Z,0.6
2022-10-11T12:28:01.547Z,0.9
2022-10-11T13:00:17.046Z,0.6
2022-10-11T13:05:05.029Z,1.2
2022-10-11T13:10:01.333Z,1.1
2022-10-11T13:15:03.855Z,1.6
2022-10-11T13:20:01.291Z,1.5
2022-10-11T13:25:01.257Z,1.4
2022-10-11T13:30:04.650Z,1.8
2022-10-11T13:35:01.332Z,1.6
2022-10-11T13:40:01.850Z,1.0
2022-10-11T13:45:02.430Z,0.8
2022-10-11T13:55:01.260Z,0.4
2022-10-11T14:00:07.254Z,0.4
2022-10-11T14:05:01.309Z,0.8
2022-10-11T14:10:01.317Z,1.0
2022-10-11T14:15:03.118Z,1.0
2022-10-11T14:20:06.161Z,0.6
2022-10-11T14:30:27.236Z,0.5
2022-10-11T14:35:01.267Z,0.3
2022-10-11T14:40:01.281Z,0.8
2022-10-11T14:45:01.719Z,1.0
2022-10-11T14:50:01.268Z,1.4
2022-10-11T15:00:03.638Z,1.6
2022-10-11T15:05:01.258Z,1.2
2022-10-11T15:10:01.288Z,0.9
2022-10-11T15:15:01.851Z,0.6
2022-10-11T15:20:01.363Z,0.4
2022-10-11T15:25:01.261Z,0.5
2022-10-11T15:30:05.700Z,0.7
2022-10-11T15:35:01.264Z,1.0
2022-10-11T15:40:01.382Z,1.8
2022-10-11T15:45:01.698Z,2.4
2022-10-11T15:50:02.099Z,2.8
2022-10-11T15:55:01.266Z,3.0
2022-10-11T16:00:02.021Z,2.9
2022-10-11T16:05:00.976Z,2.6
2022-10-11T16:10:01.265Z,2.8
2022-10-11T16:15:02.446Z,2.2
2022-10-11T16:25:01.332Z,2.4
2022-10-11T16:30:02.403Z,4.7
2022-10-11T16:35:01.940Z,5.6
2022-10-11T16:40:01.335Z,7.4
2022-10-11T16:45:01.760Z,11.6
2022-10-11T16:50:01.180Z,12.8
2022-10-11T16:55:01.129Z,10.7
2022-10-11T17:00:01.944Z,9.8
2022-10-11T17:05:01.106Z,9.5
2022-10-11T17:10:01.123Z,7.0
2022-10-11T17:15:01.634Z,7.6
2022-10-11T17:20:01.732Z,8.4
2022-10-11T17:25:01.917Z,9.8
2022-10-11T17:30:01.553Z,10.7
2022-10-11T17:35:01.168Z,9.7
2022-10-11T17:40:01.779Z,9.5
2022-10-11T17:45:01.772Z,9.6
2022-10-11T17:55:01.112Z,8.2
2022-10-11T18:00:03.502Z,8.6
2022-10-11T18:05:01.140Z,8.1
2022-10-11T18:10:01.112Z,8.0
2022-10-11T18:15:01.555Z,7.6
2022-10-11T18:20:01.548Z,7.9
2022-10-11T18:25:01.350Z,7.4
2022-10-11T18:30:01.914Z,7.5
2022-10-11T18:35:01.062Z,7.2
2022-10-11T18:40:01.517Z,7.3
2022-10-11T18:45:01.997Z,7.2
2022-10-11T18:50:01.321Z,8.1
2022-10-11T18:55:01.882Z,7.7
2022-10-11T19:00:42.409Z,7.3
2022-10-11T19:05:01.336Z,6.4
2022-10-11T19:10:01.333Z,5.6
2022-10-11T19:15:01.939Z,4.4
2022-10-11T19:25:01.356Z,4.8
2022-10-11T19:30:02.244Z,6.5
2022-10-11T19:35:01.344Z,8.8
2022-10-11T19:40:01.359Z,10.4
2022-10-11T19:45:02.021Z,12.2
2022-10-11T19:50:01.344Z,13.4
2022-10-11T19:55:01.320Z,13.8
2022-10-11T20:00:02.759Z,15.1
2022-10-11T20:05:01.409Z,15.8
2022-10-11T20:10:01.324Z,16.0
2022-10-11T20:15:02.086Z,18.6
2022-10-11T20:20:01.325Z,18.8
2022-10-11T20:25:01.354Z,19.0
2022-10-11T20:30:02.317Z,20.2
2022-10-11T20:35:01.313Z,19.7
2022-10-11T20:40:01.304Z,17.0
2022-10-11T20:45:01.966Z,16.5
2022-10-11T20:50:02.017Z,14.1
2022-10-11T20:55:01.207Z,11.9
2022-10-11T21:00:02.466Z,10.8
2022-10-11T21:10:01.333Z,10.2
2022-10-11T21:15:01.929Z,10.3
2022-10-11T21:20:01.312Z,10.7
2022-10-11T21:25:01.913Z,11.4
2022-10-11T21:30:01.932Z,10.8
2022-10-11T21:35:01.409Z,10.4
2022-10-11T21:40:27.300Z,10.5
2022-10-11T21:45:26.958Z,11.1
2022-10-11T21:50:01.310Z,11.8
2022-10-11T21:55:01.210Z,13.2
2022-10-11T22:00:27.365Z,14.6
2022-10-11T22:05:01.345Z,15.9
2022-10-11T22:10:01.247Z,16.2
2022-10-11T22:15:16.874Z,16.6
2022-10-11T22:20:01.216Z,17.5
2022-10-11T22:25:01.519Z,17.2
2022-10-11T22:30:01.937Z,17.0
2022-10-11T22:40:01.326Z,17.6
2022-10-11T22:45:01.992Z,17.4
2022-10-11T22:50:01.352Z,18.7
2022-10-11T22:55:01.870Z,20.0
2022-10-11T23:00:03.141Z,20.3
2022-10-11T23:05:01.340Z,19.9
2022-10-11T23:10:01.280Z,19.6
2022-10-11T23:15:01.809Z,19.2
2022-10-11T23:25:01.931Z,19.4
2022-10-11T23:30:01.591Z,19.4
2022-10-11T23:35:01.557Z,19.5
2022-10-11T23:40:01.110Z,19.4
2022-10-11T23:45:01.410Z,18.6
2022-10-11T23:50:01.474Z,19.4
2022-10-11T23:55:01.475Z,20.0
